Time;durP1;ratioP1;P1;durP2;ratioP2;P2;SDS_P1;SDS_P2;PMS_P1;PMS_P2;Temp;Humidity;BMP_temperature;BMP_pressure;BME280_temperature;BME280_humidity;BME280_pressure;Samples;Min_cycle;Max_cycle;Signal;HPM_P1;HPM_P2
2024/01/13 00:01:47;;;;;;;88.85;28.27;;;1.10;99.90;;;;;;5001460;28;20033;-84
2024/01/13 00:04:41;;;;;;;75.32;24.65;;;1.00;99.90;;;;;;4999014;28;20061;-84
2024/01/13 00:07:07;;;;;;;;;;;1.00;99.90;;;;;;5009354;28;20093;-84
2024/01/13 00:09:47;;;;;;;95.95;25.73;;;1.10;99.90;;;;;;5018166;28;19937;-83
2024/01/13 00:12:13;;;;;;;81.32;27.00;;;1.10;99.90;;;;;;5014200;28;20116;-84
2024/01/13 00:14:42;;;;;;;86.22;25.98;;;1.10;99.90;;;;;;5001735;28;20045;-84
2024/01/13 00:17:19;;;;;;;86.18;25.38;;;1.10;99.90;;;;;;5001526;28;20061;-84
2024/01/13 00:19:47;;;;;;;98.70;27.88;;;1.10;99.90;;;;;;5009112;28;20157;-83
2024/01/13 00:22:29;;;;;;;85.43;27.77;;;1.10;99.90;;;;;;5015171;28;20041;-83
2024/01/13 00:25:03;;;;;;;95.00;28.45;;;1.10;99.90;;;;;;5017595;28;20034;-84
2024/01/13 00:27:39;;;;;;;82.25;27.02;;;1.10;99.90;;;;;;5005312;28;20077;-84
2024/01/13 00:30:08;;;;;;;81.10;25.65;;;1.10;99.90;;;;;;5000210;28;20032;-84
2024/01/13 00:32:37;;;;;;;87.10;25.33;;;1.10;99.90;;;;;;5005203;28;20069;-84
2024/01/13 00:35:08;;;;;;;90.03;27.83;;;1.20;99.90;;;;;;5016644;28;20027;-84
2024/01/13 00:40:53;;;;;;;129.82;28.95;;;1.10;99.90;;;;;;5019463;28;20048;-84
2024/01/13 00:43:29;;;;;;;82.10;26.75;;;1.10;99.90;;;;;;5006158;28;20045;-84
2024/01/13 00:45:58;;;;;;;88.30;26.42;;;1.10;99.90;;;;;;5017092;28;21416;-84
2024/01/13 00:48:34;;;;;;;93.13;25.08;;;1.10;99.90;;;;;;5023822;28;20030;-83
2024/01/13 00:51:11;;;;;;;107.20;29.33;;;1.10;99.90;;;;;;5010839;28;20142;-84
2024/01/13 00:53:47;;;;;;;73.57;24.38;;;1.10;99.90;;;;;;5013449;28;20482;-84
2024/01/13 00:56:15;;;;;;;86.15;25.42;;;1.10;99.90;;;;;;5009151;28;20032;-84
2024/01/13 00:58:55;;;;;;;76.25;24.65;;;1.10;99.90;;;;;;5014480;28;20026;-84
2024/01/13 01:01:29;;;;;;;93.68;25.20;;;1.10;99.90;;;;;;5015115;28;20097;-84
2024/01/13 01:04:05;;;;;;;85.13;26.17;;;1.10;99.90;;;;;;5014228;28;20086;-84
2024/01/13 01:06:34;;;;;;;82.05;23.52;;;1.10;99.90;;;;;;5026540;28;20102;-83
2024/01/13 01:09:06;;;;;;;82.72;25.70;;;1.10;99.90;;;;;;5007819;28;20026;-84
2024/01/13 01:11:42;;;;;;;96.00;26.95;;;1.10;99.90;;;;;;4999824;28;20022;-84
2024/01/13 01:14:16;;;;;;;75.82;26.75;;;1.10;99.90;;;;;;4999260;28;20044;-84
2024/01/13 01:16:54;;;;;;;99.35;26.23;;;1.10;99.90;;;;;;4998810;28;20026;-84
2024/01/13 01:19:31;;;;;;;85.88;25.40;;;1.10;99.90;;;;;;4996647;28;20053;-84
2024/01/13 01:22:08;;;;;;;89.07;25.83;;;1.10;99.90;;;;;;5004630;28;20034;-84
2024/01/13 01:24:42;;;;;;;83.22;25.35;;;1.10;99.90;;;;;;5002651;28;20022;-84
2024/01/13 01:27:12;;;;;;;;;;;1.10;99.90;;;;;;5003261;28;20057;-83
2024/01/13 01:29:44;;;;;;;87.78;23.25;;;1.10;99.90;;;;;;5016394;28;19996;-84
2024/01/13 01:32:20;;;;;;;71.70;23.48;;;1.10;99.90;;;;;;5018022;28;20101;-84
2024/01/13 01:34:51;;;;;;;69.25;22.95;;;1.10;99.90;;;;;;5018894;28;20402;-84
2024/01/13 01:37:29;;;;;;;84.43;24.75;;;1.10;99.90;;;;;;5004960;28;20033;-83
2024/01/13 01:40:00;;;;;;;83.07;23.63;;;1.10;99.90;;;;;;5000263;28;20045;-84
2024/01/13 01:42:31;;;;;;;81.70;24.00;;;1.10;99.90;;;;;;5004965;28;20130;-84
2024/01/13 01:45:15;;;;;;;;;;;;;;;;;;;;;
2024/01/13 01:47:45;;;;;;;94.47;27.00;;;1.10;99.90;;;;;;5017751;28;20120;-84
2024/01/13 01:50:26;;;;;;;66.22;23.35;;;1.10;99.90;;;;;;5004566;28;20049;-83
2024/01/13 01:53:02;;;;;;;76.72;24.08;;;1.10;99.90;;;;;;5007949;28;21278;-84
2024/01/13 01:55:27;;;;;;;73.50;22.70;;;1.10;99.90;;;;;;5004253;28;20018;-82
2024/01/13 01:58:14;;;;;;;98.25;24.60;;;1.10;99.90;;;;;;5003838;28;20453;-84
2024/01/13 02:04:40;;;;;;;71.80;22.73;;;1.10;99.90;;;;;;4971774;28;20409;-84
2024/01/13 02:10:46;;;;;;;69.95;23.65;;;1.10;99.90;;;;;;5011605;28;20092;-84
2024/01/13 02:13:53;;;;;;;77.63;24.77;;;1.10;99.90;;;;;;5003630;28;20478;-84
2024/01/13 02:19:52;;;;;;;67.63;23.08;;;1.10;99.90;;;;;;4955515;29;20035;-83
2024/01/13 02:22:41;;;;;;;;;;;1.10;99.90;;;;;;5003683;28;20030;-84
2024/01/13 02:25:28;;;;;;;68.13;21.77;;;1.10;99.90;;;;;;4999368;28;19909;-81
2024/01/13 02:28:19;;;;;;;68.43;20.45;;;1.10;99.90;;;;;;5019244;28;20061;-83
2024/01/13 02:30:56;;;;;;;69.18;22.48;;;1.10;99.90;;;;;;5019441;28;20084;-83
2024/01/13 02:33:46;;;;;;;73.22;23.42;;;1.10;99.90;;;;;;5004568;28;20150;-84
2024/01/13 02:36:28;;;;;;;70.80;24.38;;;1.10;99.90;;;;;;5000169;28;20033;-84
2024/01/13 02:39:35;;;;;;;82.35;24.83;;;1.10;99.90;;;;;;4998464;28;20475;-82
2024/01/13 02:42:27;;;;;;;74.00;23.45;;;1.20;99.90;;;;;;5030855;28;20130;-83
2024/01/13 02:45:32;;;;;;;81.15;23.75;;;1.10;99.90;;;;;;5016596;28;20047;-83
2024/01/13 02:48:36;;;;;;;62.22;20.83;;;1.20;99.90;;;;;;4994124;28;20088;-81
2024/01/13 02:51:14;;;;;;;69.32;23.98;;;1.20;99.90;;;;;;5014005;28;20526;-81
2024/01/13 02:53:53;;;;;;;86.60;23.20;;;1.20;99.90;;;;;;4993776;28;20046;-82
2024/01/13 02:56:44;;;;;;;69.93;22.70;;;1.20;99.90;;;;;;4999887;28;20046;-82
2024/01/13 02:59:29;;;;;;;67.15;22.92;;;1.20;99.90;;;;;;5010982;28;20066;-82
2024/01/13 03:02:23;;;;;;;64.82;21.20;;;1.10;99.90;;;;;;5013379;28;20037;-82
2024/01/13 03:05:03;;;;;;;68.40;21.75;;;1.20;99.90;;;;;;5002798;28;20039;-82
2024/01/13 03:07:37;;;;;;;64.88;22.25;;;1.20;99.90;;;;;;5017275;28;20052;-82
2024/01/13 03:10:37;;;;;;;67.13;22.80;;;1.20;99.90;;;;;;5000843;28;20034;-82
2024/01/13 03:13:19;;;;;;;74.15;23.27;;;1.20;99.90;;;;;;4915805;28;20038;-82
2024/01/13 03:15:53;;;;;;;69.32;23.00;;;1.20;99.90;;;;;;5005736;28;20033;-82
2024/01/13 03:18:26;;;;;;;73.60;22.13;;;1.20;99.90;;;;;;5002444;28;20040;-82
2024/01/13 03:21:15;;;;;;;69.35;22.75;;;1.20;99.90;;;;;;5001358;28;20034;-82
2024/01/13 03:23:44;;;;;;;73.28;22.88;;;1.20;99.90;;;;;;5000734;28;20406;-82
2024/01/13 03:26:33;;;;;;;66.20;22.98;;;1.10;99.90;;;;;;5001865;28;20477;-82
2024/01/13 03:29:19;;;;;;;69.20;22.60;;;1.10;99.90;;;;;;5002163;28;20498;-82
2024/01/13 03:32:03;;;;;;;;;;;;;;;;;;;;;
2024/01/13 03:34:41;;;;;;;69.65;22.42;;;1.10;99.90;;;;;;5019878;28;20445;-82
2024/01/13 03:37:26;;;;;;;67.72;22.10;;;1.10;99.90;;;;;;5007642;28;20048;-81
2024/01/13 03:39:57;;;;;;;68.28;22.25;;;1.10;99.90;;;;;;4996895;28;20041;-82
2024/01/13 03:42:38;;;;;;;63.60;22.27;;;1.10;99.90;;;;;;4998906;28;20676;-82
2024/01/13 03:45:30;;;;;;;74.32;21.58;;;1.10;99.90;;;;;;5018447;28;20085;-81
2024/01/13 03:48:22;;;;;;;66.28;21.27;;;1.10;99.90;;;;;;5000980;28;20503;-82
2024/01/13 03:51:05;;;;;;;80.25;24.40;;;1.10;99.90;;;;;;5000695;28;20037;-82
2024/01/13 03:53:47;;;;;;;67.20;24.00;;;1.10;99.90;;;;;;5005612;28;20029;-82
2024/01/13 03:56:34;;;;;;;66.18;21.52;;;1.10;99.90;;;;;;5000438;28;20112;-82
2024/01/13 03:59:14;;;;;;;79.20;21.85;;;1.10;99.90;;;;;;5006208;28;20122;-82
2024/01/13 04:05:04;;;;;;;63.53;21.10;;;1.10;99.90;;;;;;5013678;28;20029;-82
2024/01/13 04:07:43;;;;;;;;;;;;;;;;;;;;;
2024/01/13 04:10:23;;;;;;;67.15;22.73;;;1.10;99.90;;;;;;5017232;28;20125;-82
2024/01/13 04:13:11;;;;;;;71.57;22.70;;;1.10;99.90;;;;;;4998687;28;20031;-82
2024/01/13 04:15:57;;;;;;;67.93;20.95;;;1.10;99.90;;;;;;5004198;28;20112;-82
2024/01/13 04:18:39;;;;;;;71.18;20.95;;;1.10;99.90;;;;;;5006754;28;20026;-82
2024/01/13 04:21:10;;;;;;;77.68;21.13;;;1.10;99.90;;;;;;5005316;28;20120;-83
2024/01/13 04:23:50;;;;;;;64.68;22.30;;;1.10;99.90;;;;;;5012526;28;20516;-82
2024/01/13 04:26:28;;;;;;;66.63;21.02;;;1.10;99.90;;;;;;4999431;28;20032;-82
2024/01/13 04:28:58;;;;;;;63.63;20.50;;;1.10;99.90;;;;;;5009714;28;20045;-82
2024/01/13 04:32:05;;;;;;;;;;;;;;;;;;;;;
2024/01/13 04:34:37;;;;;;;61.22;20.52;;;1.00;99.90;;;;;;5022605;28;20541;-82
2024/01/13 04:37:08;;;;;;;70.40;22.05;;;1.00;99.90;;;;;;5002917;28;20030;-82
2024/01/13 04:39:41;;;;;;;74.80;23.25;;;1.00;99.90;;;;;;5006501;28;20416;-82
2024/01/13 04:42:26;;;;;;;;;;;1.10;99.90;;;;;;5005146;28;20026;-82
2024/01/13 04:44:51;;;;;;;65.32;20.70;;;1.00;99.90;;;;;;4995039;28;19920;-82
2024/01/13 04:47:20;;;;;;;57.53;19.60;;;1.00;99.90;;;;;;5003090;28;20531;-82
2024/01/13 04:49:59;;;;;;;63.78;20.27;;;1.00;99.90;;;;;;5001188;28;20102;-84
2024/01/13 04:52:28;;;;;;;59.08;21.63;;;1.10;99.90;;;;;;5003982;28;20413;-82
2024/01/13 04:55:08;;;;;;;74.22;22.08;;;1.00;99.90;;;;;;4996404;28;20422;-81
2024/01/13 04:58:03;;;;;;;61.70;20.60;;;1.10;99.90;;;;;;5003048;28;20026;-83
2024/01/13 05:00:37;;;;;;;49.72;17.90;;;1.10;99.90;;;;;;5004674;28;20049;-82
2024/01/13 05:03:08;;;;;;;67.70;20.90;;;1.10;99.90;;;;;;5019617;28;20082;-81
2024/01/13 05:05:47;;;;;;;55.42;19.58;;;1.10;99.90;;;;;;5002583;28;20101;-81
2024/01/13 05:08:33;;;;;;;59.17;20.55;;;1.10;99.90;;;;;;5000607;28;20513;-82
2024/01/13 05:11:22;;;;;;;61.88;21.13;;;1.10;99.90;;;;;;5021322;28;20018;-81
2024/01/13 05:13:50;;;;;;;56.70;19.20;;;1.10;99.90;;;;;;4996782;28;20493;-82
2024/01/13 05:16:25;;;;;;;55.58;18.33;;;1.10;99.90;;;;;;5006009;28;20041;-82
2024/01/13 05:19:03;;;;;;;54.03;19.55;;;1.10;99.90;;;;;;5021087;28;20030;-81
2024/01/13 05:21:43;;;;;;;65.97;19.77;;;1.10;99.90;;;;;;5014814;28;20022;-82
2024/01/13 05:24:16;;;;;;;57.75;18.95;;;1.10;99.90;;;;;;5000671;28;20025;-81
2024/01/13 05:26:48;;;;;;;55.45;19.90;;;1.10;99.90;;;;;;5001203;28;20112;-82
2024/01/13 05:29:14;;;;;;;57.42;19.92;;;1.10;99.90;;;;;;4998553;28;20034;-82
2024/01/13 05:32:03;;;;;;;59.55;19.45;;;1.10;99.90;;;;;;4999950;28;20549;-82
2024/01/13 05:34:41;;;;;;;59.10;19.33;;;1.10;99.90;;;;;;5006774;28;20467;-81
2024/01/13 05:37:28;;;;;;;60.90;18.95;;;1.10;99.90;;;;;;4999613;28;20033;-81
2024/01/13 05:40:26;;;;;;;51.67;18.08;;;1.10;99.90;;;;;;4999583;28;20370;-81
2024/01/13 05:43:19;;;;;;;;;;;;;;;;;;;;;
2024/01/13 05:45:58;;;;;;;137.20;21.00;;;1.10;99.90;;;;;;5016183;28;20112;-82
2024/01/13 05:48:30;;;;;;;85.57;19.77;;;1.00;99.90;;;;;;5001141;28;20054;-82
2024/01/13 05:53:46;;;;;;;58.47;19.30;;;1.00;99.90;;;;;;5084581;27;20411;-55
2024/01/13 05:56:11;;;;;;;68.68;19.40;;;1.00;99.90;;;;;;5075356;28;20033;-55
2024/01/13 05:58:39;;;;;;;87.32;19.50;;;1.00;99.90;;;;;;5072787;28;20036;-53
2024/01/13 06:01:05;;;;;;;89.05;20.25;;;1.00;99.90;;;;;;5078033;28;20032;-52
2024/01/13 06:03:30;;;;;;;98.68;21.92;;;1.00;99.90;;;;;;5073557;28;20033;-54
2024/01/13 06:05:56;;;;;;;85.78;20.17;;;1.10;99.90;;;;;;5071426;28;20057;-54
2024/01/13 06:08:21;;;;;;;49.58;19.15;;;1.00;99.90;;;;;;5069430;28;20033;-55
2024/01/13 06:10:47;;;;;;;53.35;18.70;;;1.00;99.90;;;;;;5072587;28;20028;-52
2024/01/13 06:13:13;;;;;;;52.40;17.95;;;1.10;99.90;;;;;;5073919;28;20035;-52
2024/01/13 06:15:38;;;;;;;44.35;16.80;;;1.10;99.90;;;;;;5078155;28;20039;-53
2024/01/13 06:18:04;;;;;;;55.65;17.98;;;1.10;99.90;;;;;;5073609;28;20021;-53
2024/01/13 06:20:29;;;;;;;48.38;17.92;;;1.10;99.90;;;;;;5076420;28;20024;-54
2024/01/13 06:22:55;;;;;;;51.90;17.48;;;1.10;99.90;;;;;;5074712;28;20025;-52
2024/01/13 06:25:21;;;;;;;47.38;18.30;;;1.10;99.90;;;;;;5074318;28;20572;-54
2024/01/13 06:27:46;;;;;;;52.17;18.02;;;1.10;99.90;;;;;;5071660;28;20470;-55
2024/01/13 06:30:12;;;;;;;46.22;18.08;;;1.10;99.90;;;;;;5079667;28;20410;-53
2024/01/13 06:32:38;;;;;;;41.85;15.32;;;1.10;99.90;;;;;;5073811;28;20028;-51
2024/01/13 06:35:04;;;;;;;46.60;16.92;;;1.10;99.90;;;;;;5080981;28;20031;-51
2024/01/13 06:37:30;;;;;;;44.05;17.10;;;1.10;99.90;;;;;;5080169;28;20021;-55
2024/01/13 06:39:56;;;;;;;43.58;16.45;;;1.10;99.90;;;;;;5072325;28;20066;-51
2024/01/13 06:42:21;;;;;;;42.92;16.80;;;1.10;99.90;;;;;;5076124;28;20039;-56
2024/01/13 06:44:48;;;;;;;42.50;17.70;;;1.10;99.90;;;;;;5073497;28;20503;-51
2024/01/13 06:47:14;;;;;;;47.97;19.45;;;1.20;99.90;;;;;;5077236;28;20100;-52
2024/01/13 06:49:40;;;;;;;44.80;17.35;;;1.20;99.90;;;;;;5075353;28;20562;-53
2024/01/13 06:52:08;;;;;;;44.17;17.65;;;1.20;99.90;;;;;;5076126;28;20482;-55
2024/01/13 06:54:34;;;;;;;46.85;18.05;;;1.20;99.90;;;;;;5074686;28;20024;-53
2024/01/13 06:57:00;;;;;;;46.30;18.35;;;1.20;99.90;;;;;;5075204;28;20044;-54
2024/01/13 06:59:26;;;;;;;42.47;18.05;;;1.20;99.90;;;;;;5073814;28;20024;-55
2024/01/13 07:01:52;;;;;;;48.60;17.30;;;1.20;99.90;;;;;;5072871;28;20037;-54
2024/01/13 07:04:18;;;;;;;42.65;17.77;;;1.20;99.90;;;;;;5061119;28;20111;-54
2024/01/13 07:06:43;;;;;;;48.53;17.60;;;1.20;99.90;;;;;;5058749;28;20028;-52
2024/01/13 07:09:09;;;;;;;44.47;17.38;;;1.20;99.90;;;;;;5028031;28;20057;-56
2024/01/13 07:11:34;;;;;;;45.67;16.92;;;1.20;99.90;;;;;;5029273;28;20037;-55
2024/01/13 07:14:00;;;;;;;39.38;16.83;;;1.20;99.90;;;;;;5023755;28;20025;-54
2024/01/13 07:16:26;;;;;;;49.85;17.75;;;1.20;99.90;;;;;;5029772;28;20029;-52
2024/01/13 07:18:51;;;;;;;37.30;16.88;;;1.20;99.90;;;;;;5027031;28;20028;-55
2024/01/13 07:21:17;;;;;;;46.33;17.15;;;1.20;99.90;;;;;;5027389;28;20026;-53
2024/01/13 07:23:43;;;;;;;46.00;17.02;;;1.20;99.90;;;;;;5031406;28;20104;-54
2024/01/13 07:26:09;;;;;;;46.60;18.95;;;1.20;99.90;;;;;;5035502;28;20052;-54
2024/01/13 07:28:35;;;;;;;43.90;16.50;;;1.20;99.90;;;;;;5033037;28;20029;-56
2024/01/13 07:31:00;;;;;;;45.22;17.00;;;1.20;99.90;;;;;;5027919;28;20042;-51
2024/01/13 07:33:26;;;;;;;41.70;17.33;;;1.20;99.90;;;;;;5028496;28;20456;-52
2024/01/13 07:35:51;;;;;;;39.45;16.65;;;1.20;99.90;;;;;;5026900;28;20078;-56
2024/01/13 07:38:17;;;;;;;43.33;17.05;;;1.20;99.90;;;;;;5027095;28;20034;-51
2024/01/13 07:40:42;;;;;;;41.03;18.25;;;1.20;99.90;;;;;;5027648;28;20032;-53
2024/01/13 07:43:08;;;;;;;41.50;16.48;;;1.10;99.90;;;;;;5029760;28;20032;-54
2024/01/13 07:45:34;;;;;;;48.55;18.67;;;1.10;99.90;;;;;;5020914;28;20030;-55
2024/01/13 07:48:00;;;;;;;47.88;17.40;;;1.10;99.90;;;;;;5024949;28;20041;-55
2024/01/13 07:50:25;;;;;;;44.55;16.88;;;1.10;99.90;;;;;;5031142;28;20095;-53
2024/01/13 07:52:51;;;;;;;43.75;17.15;;;1.10;99.90;;;;;;5027913;28;20030;-51
2024/01/13 07:55:17;;;;;;;46.10;17.20;;;1.10;99.90;;;;;;5017579;28;20033;-54
2024/01/13 07:57:42;;;;;;;46.17;18.42;;;1.20;99.90;;;;;;5024481;28;20447;-55
2024/01/13 08:00:09;;;;;;;39.83;17.38;;;1.20;99.90;;;;;;5027711;28;20033;-54
2024/01/13 08:02:34;;;;;;;42.40;17.40;;;1.20;99.90;;;;;;5023639;28;20581;-52
2024/01/13 08:05:00;;;;;;;46.60;17.42;;;1.20;99.90;;;;;;5021401;28;20048;-53
2024/01/13 08:07:25;;;;;;;43.22;16.98;;;1.20;99.90;;;;;;5021556;28;20135;-54
2024/01/13 08:09:51;;;;;;;50.85;16.23;;;1.20;99.90;;;;;;5025608;28;20022;-54
2024/01/13 08:12:17;;;;;;;41.05;16.63;;;1.20;99.90;;;;;;5032116;28;20098;-51
2024/01/13 08:14:42;;;;;;;38.20;17.08;;;1.30;99.90;;;;;;5020919;28;20149;-55
2024/01/13 08:17:08;;;;;;;46.45;17.70;;;1.20;99.90;;;;;;5028012;28;20041;-53
2024/01/13 08:19:35;;;;;;;39.40;17.13;;;1.30;99.90;;;;;;5022927;28;20067;-51
2024/01/13 08:22:00;;;;;;;44.38;17.30;;;1.30;99.90;;;;;;5024521;28;20038;-51
2024/01/13 08:24:26;;;;;;;54.30;16.77;;;1.30;99.90;;;;;;5031636;28;20514;-54
2024/01/13 08:26:52;;;;;;;47.17;17.42;;;1.30;99.90;;;;;;5020879;28;20128;-51
2024/01/13 08:29:18;;;;;;;53.70;18.98;;;1.30;99.90;;;;;;5023702;28;20049;-53
2024/01/13 08:31:47;;;;;;;44.50;17.15;;;1.30;99.90;;;;;;5027021;28;20053;-54
2024/01/13 08:34:13;;;;;;;39.92;16.63;;;1.30;99.90;;;;;;5033287;28;20155;-53
2024/01/13 08:36:40;;;;;;;40.20;17.27;;;1.40;99.90;;;;;;5030253;28;20100;-54
2024/01/13 08:39:06;;;;;;;51.53;23.38;;;1.40;99.90;;;;;;5023316;28;20026;-53
2024/01/13 08:41:32;;;;;;;61.42;25.75;;;1.40;99.90;;;;;;5023814;28;20496;-54
2024/01/13 08:43:57;;;;;;;52.50;24.10;;;1.40;99.90;;;;;;5032157;28;20044;-52
2024/01/13 08:46:23;;;;;;;50.72;21.58;;;1.40;99.90;;;;;;5022093;28;20373;-54
2024/01/13 08:48:49;;;;;;;47.08;20.52;;;1.40;99.90;;;;;;5031114;28;20028;-54
2024/01/13 08:51:15;;;;;;;49.08;22.10;;;1.50;99.90;;;;;;5031520;28;20033;-56
2024/01/13 08:53:40;;;;;;;47.67;20.30;;;1.50;99.90;;;;;;5025396;28;20029;-53
2024/01/13 08:56:06;;;;;;;45.42;20.08;;;1.50;99.90;;;;;;5025253;28;20028;-55
2024/01/13 08:58:32;;;;;;;51.00;19.67;;;1.60;99.90;;;;;;5035623;28;20025;-53
2024/01/13 09:00:57;;;;;;;43.75;19.90;;;1.50;99.90;;;;;;5029977;28;20026;-56
2024/01/13 09:03:25;;;;;;;47.83;19.40;;;1.60;99.90;;;;;;5025421;28;20475;-51
2024/01/13 09:05:51;;;;;;;41.35;19.30;;;1.60;99.90;;;;;;5029924;28;20033;-52
2024/01/13 09:08:17;;;;;;;52.22;24.33;;;1.60;99.90;;;;;;5027644;28;20499;-51
2024/01/13 09:10:42;;;;;;;42.42;20.40;;;1.70;99.90;;;;;;5032361;28;20120;-55
2024/01/13 09:13:08;;;;;;;37.22;18.98;;;1.60;99.90;;;;;;5047268;28;20371;-53
2024/01/13 09:15:33;;;;;;;39.67;18.90;;;1.70;99.90;;;;;;5052776;28;20032;-51
2024/01/13 09:18:02;;;;;;;31.55;17.33;;;1.80;99.90;;;;;;5038408;28;20029;-54
2024/01/13 09:20:28;;;;;;;35.15;16.58;;;1.90;99.90;;;;;;5042274;28;20106;-54
2024/01/13 09:22:54;;;;;;;41.97;18.40;;;1.90;99.90;;;;;;5046556;28;20021;-53
2024/01/13 09:25:19;;;;;;;45.08;20.50;;;1.90;99.90;;;;;;5045741;28;20104;-55
2024/01/13 09:27:45;;;;;;;83.80;33.75;;;1.90;99.90;;;;;;5039597;28;20029;-54
2024/01/13 09:30:11;;;;;;;67.00;28.95;;;1.90;99.90;;;;;;5046395;28;20040;-54
2024/01/13 09:32:37;;;;;;;77.07;32.10;;;1.90;99.90;;;;;;5046166;28;20025;-54
2024/01/13 09:35:03;;;;;;;59.00;25.15;;;1.90;99.90;;;;;;5042629;28;20044;-52
2024/01/13 09:37:29;;;;;;;84.38;33.92;;;1.90;99.90;;;;;;5045237;28;20483;-53
2024/01/13 09:39:55;;;;;;;79.50;32.80;;;1.90;99.90;;;;;;5039325;28;20017;-52
2024/01/13 09:42:59;;;;;;;87.47;36.40;;;2.00;99.90;;;;;;5027572;28;20168;-54
2024/01/13 09:45:27;;;;;;;93.53;38.15;;;2.00;99.90;;;;;;5024881;28;20495;-54
2024/01/13 09:47:56;;;;;;;60.35;26.92;;;2.00;99.90;;;;;;5025463;28;20025;-53
2024/01/13 09:50:22;;;;;;;61.13;29.08;;;2.10;99.90;;;;;;5021861;28;20391;-53
2024/01/13 09:52:47;;;;;;;52.13;26.67;;;2.10;99.90;;;;;;5029572;28;20029;-53
2024/01/13 09:55:15;;;;;;;44.63;23.52;;;2.10;99.90;;;;;;5020222;28;20033;-52
2024/01/13 09:57:41;;;;;;;49.60;25.15;;;2.20;99.90;;;;;;5022983;28;20155;-55
2024/01/13 10:00:08;;;;;;;50.60;22.25;;;2.20;99.90;;;;;;5029504;28;20563;-52
2024/01/13 10:02:33;;;;;;;39.25;21.17;;;2.20;99.90;;;;;;5027599;28;20026;-52
2024/01/13 10:04:59;;;;;;;147.32;59.85;;;2.20;99.90;;;;;;5022493;28;20140;-51
2024/01/13 10:07:26;;;;;;;83.32;37.40;;;2.10;99.90;;;;;;5025235;28;20029;-53
2024/01/13 10:09:52;;;;;;;80.15;34.22;;;2.10;99.90;;;;;;5003772;28;20046;-53
2024/01/13 10:12:18;;;;;;;59.50;26.00;;;2.10;99.90;;;;;;5030176;28;20502;-52
2024/01/13 10:14:44;;;;;;;87.30;35.35;;;2.10;99.90;;;;;;5030078;28;20113;-53
2024/01/13 10:17:11;;;;;;;34.45;17.23;;;2.10;99.90;;;;;;5026954;28;20096;-54
2024/01/13 10:19:41;;;;;;;55.33;24.30;;;2.10;99.90;;;;;;5030730;28;20053;-56
2024/01/13 10:22:07;;;;;;;45.83;22.83;;;2.10;99.90;;;;;;5018372;28;20527;-54
2024/01/13 10:24:34;;;;;;;43.03;19.92;;;2.10;99.90;;;;;;5030282;28;20415;-55
2024/01/13 10:27:00;;;;;;;43.13;21.25;;;2.10;99.90;;;;;;5028755;28;20029;-51
2024/01/13 10:29:25;;;;;;;26.40;14.40;;;2.10;99.90;;;;;;5020787;28;20446;-55
2024/01/13 10:31:52;;;;;;;27.40;13.88;;;2.10;99.90;;;;;;5024624;28;20033;-54
2024/01/13 10:34:21;;;;;;;44.92;20.90;;;2.20;99.90;;;;;;5028555;28;20075;-52
2024/01/13 10:36:47;;;;;;;54.55;22.90;;;2.20;99.90;;;;;;5024485;28;20030;-53
2024/01/13 10:39:14;;;;;;;31.73;16.63;;;2.20;99.90;;;;;;5026278;28;20022;-54
2024/01/13 10:41:44;;;;;;;62.65;24.38;;;2.20;99.90;;;;;;5034773;28;20030;-54
2024/01/13 10:44:12;;;;;;;40.53;19.73;;;2.20;99.90;;;;;;5021868;28;20029;-56
2024/01/13 10:46:38;;;;;;;46.92;21.15;;;2.20;99.90;;;;;;5026373;28;20029;-53
2024/01/13 10:49:16;;;;;;;20.88;10.82;;;2.20;99.90;;;;;;5027486;28;20021;-53
2024/01/13 10:51:47;;;;;;;19.27;10.88;;;2.20;99.90;;;;;;5030562;28;20067;-53
2024/01/13 10:54:16;;;;;;;22.27;11.98;;;2.20;99.90;;;;;;5032176;28;20113;-53
2024/01/13 10:56:42;;;;;;;20.50;10.75;;;2.30;99.90;;;;;;5026182;28;20072;-53
2024/01/13 10:59:08;;;;;;;16.20;9.77;;;2.30;99.90;;;;;;5026352;28;20033;-55
2024/01/13 11:01:34;;;;;;;21.55;10.43;;;2.30;99.90;;;;;;5023106;28;20033;-56
2024/01/13 11:04:04;;;;;;;21.27;10.38;;;2.30;99.90;;;;;;5028212;28;20063;-54
2024/01/13 11:06:30;;;;;;;23.33;12.38;;;2.30;99.90;;;;;;5023505;28;20037;-53
2024/01/13 11:08:56;;;;;;;19.58;10.43;;;2.30;99.90;;;;;;5015230;28;20033;-54
2024/01/13 11:11:31;;;;;;;22.80;11.60;;;2.40;99.90;;;;;;5023415;28;20028;-52
2024/01/13 11:14:07;;;;;;;20.77;9.75;;;2.40;99.90;;;;;;5030672;28;20099;-53
2024/01/13 11:16:34;;;;;;;16.40;8.55;;;2.40;99.90;;;;;;5026936;28;20083;-56
2024/01/13 11:19:00;;;;;;;29.05;13.27;;;2.40;99.90;;;;;;5026552;28;20214;-55
2024/01/13 11:21:32;;;;;;;24.80;10.43;;;2.50;99.90;;;;;;5030778;28;20108;-55
2024/01/13 11:24:10;;;;;;;16.83;9.38;;;2.50;99.90;;;;;;5032294;28;20021;-54
2024/01/13 11:26:43;;;;;;;23.08;11.55;;;2.50;99.90;;;;;;5033213;28;20392;-53
2024/01/13 11:29:24;;;;;;;14.75;7.43;;;2.50;99.90;;;;;;5029799;28;20060;-54
2024/01/13 11:31:58;;;;;;;25.65;10.90;;;2.40;99.90;;;;;;5022368;28;20037;-51
2024/01/13 11:34:24;;;;;;;;;;;2.40;99.90;;;;;;5027724;28;20037;-54
2024/01/13 11:36:51;;;;;;;19.58;8.98;;;2.40;99.90;;;;;;5022742;28;19974;-54
2024/01/13 11:39:18;;;;;;;29.45;13.20;;;2.50;99.90;;;;;;5022498;28;20475;-52
2024/01/13 11:41:54;;;;;;;21.48;10.32;;;2.50;99.90;;;;;;5007553;28;20033;-51
2024/01/13 11:45:04;;;;;;;35.83;15.40;;;2.60;99.90;;;;;;5053658;23;20522;-83
2024/01/13 11:47:35;;;;;;;18.00;10.15;;;2.50;99.90;;;;;;5037194;28;20040;-83
2024/01/13 11:50:56;;;;;;;20.42;9.93;;;2.40;99.90;;;;;;5020106;28;20122;-83
2024/01/13 11:53:43;;;;;;;52.53;22.30;;;2.40;99.90;;;;;;4999180;28;20042;-83
2024/01/13 11:56:22;;;;;;;16.00;8.88;;;2.30;99.90;;;;;;4988620;28;20029;-84
2024/01/13 11:58:51;;;;;;;16.20;8.20;;;2.30;99.90;;;;;;4994749;28;20394;-83
2024/01/13 12:01:27;;;;;;;18.15;10.30;;;2.20;99.90;;;;;;4996653;28;20482;-83
2024/01/13 12:04:07;;;;;;;;;;;;;;;;;;;;;
2024/01/13 12:06:48;;;;;;;;;;;;;;;;;;;;;
2024/01/13 12:09:29;;;;;;;23.02;11.30;;;2.20;99.90;;;;;;4998239;28;20109;-83
2024/01/13 12:12:03;;;;;;;17.67;9.77;;;2.20;99.90;;;;;;4997546;28;20030;-83
2024/01/13 12:14:57;;;;;;;;;;;;;;;;;;;;;
2024/01/13 12:17:34;;;;;;;14.48;8.75;;;2.10;99.90;;;;;;4999770;28;20000;-82
2024/01/13 12:20:11;;;;;;;13.52;7.45;;;2.10;99.90;;;;;;5000509;28;20081;-81
2024/01/13 12:22:45;;;;;;;18.10;8.98;;;2.10;99.90;;;;;;4996264;28;20046;-83
2024/01/13 12:25:14;;;;;;;13.70;8.20;;;2.00;99.90;;;;;;4996778;28;20463;-82
2024/01/13 12:28:02;;;;;;;16.25;8.80;;;2.00;99.90;;;;;;4997311;28;20157;-82
2024/01/13 12:30:48;;;;;;;15.18;7.90;;;2.00;99.90;;;;;;4999294;28;20030;-82
2024/01/13 12:33:25;;;;;;;13.88;7.95;;;2.00;99.90;;;;;;4992480;28;20034;-82
2024/01/13 12:36:14;;;;;;;19.75;9.20;;;2.00;99.90;;;;;;4995020;28;20434;-82
2024/01/13 12:39:08;;;;;;;23.73;11.10;;;2.00;99.90;;;;;;4991119;28;20034;-82
2024/01/13 12:41:39;;;;;;;19.15;10.02;;;2.00;99.90;;;;;;4996035;28;20027;-82
2024/01/13 12:44:05;;;;;;;15.85;9.13;;;2.00;99.90;;;;;;5004058;28;20038;-83
2024/01/13 12:46:50;;;;;;;23.27;10.48;;;1.90;99.90;;;;;;4986928;28;20431;-82
2024/01/13 12:49:17;;;;;;;17.27;8.68;;;1.90;99.90;;;;;;4996402;28;20505;-82
2024/01/13 12:51:58;;;;;;;15.07;7.82;;;1.90;99.90;;;;;;4993228;28;20030;-84
2024/01/13 12:54:31;;;;;;;20.65;11.07;;;1.90;99.90;;;;;;4993699;28;20037;-82
2024/01/13 12:57:12;;;;;;;20.25;10.02;;;1.90;99.90;;;;;;4999239;28;20084;-82
2024/01/13 12:59:48;;;;;;;16.73;9.10;;;1.90;99.90;;;;;;4996000;28;20517;-82
2024/01/13 13:02:33;;;;;;;19.95;9.93;;;1.90;99.90;;;;;;4993480;28;20065;-83
2024/01/13 13:05:03;;;;;;;24.65;12.77;;;1.90;99.90;;;;;;4993223;28;20026;-82
2024/01/13 13:07:37;;;;;;;23.00;11.13;;;1.90;99.90;;;;;;4994273;28;20030;-82
2024/01/13 13:10:32;;;;;;;20.83;10.43;;;1.90;99.90;;;;;;4999710;28;20033;-83
2024/01/13 13:13:05;;;;;;;18.80;11.30;;;1.90;99.90;;;;;;5015660;28;20041;-82
2024/01/13 13:16:00;;;;;;;27.83;14.82;;;1.90;99.90;;;;;;4995100;28;20082;-82
2024/01/13 13:18:41;;;;;;;21.38;11.93;;;1.90;99.90;;;;;;5011205;28;20036;-82
2024/01/13 13:21:23;;;;;;;;;;;;;;;;;;;;;
2024/01/13 13:23:54;;;;;;;23.05;12.18;;;1.90;99.90;;;;;;5005270;28;20113;-82
2024/01/13 13:26:43;;;;;;;23.65;10.95;;;1.90;99.90;;;;;;4998320;28;20085;-82
2024/01/13 13:29:14;;;;;;;29.95;15.13;;;1.90;99.90;;;;;;4999267;28;20133;-82
2024/01/13 13:31:44;;;;;;;26.05;11.98;;;1.90;99.90;;;;;;4997330;28;20040;-83
2024/01/13 13:34:15;;;;;;;26.98;10.98;;;1.90;99.90;;;;;;4992955;28;20026;-82
2024/01/13 13:36:57;;;;;;;25.58;13.00;;;1.90;99.90;;;;;;5001783;28;20023;-82
2024/01/13 13:39:41;;;;;;;;;;;;;;;;;;;;;
2024/01/13 13:45:23;;;;;;;31.35;16.77;;;1.90;99.90;;;;;;4986944;28;21248;-82
2024/01/13 13:47:56;;;;;;;31.23;16.27;;;1.90;99.90;;;;;;4994857;28;20391;-83